Time;durP1;ratioP1;P1;durP2;ratioP2;P2;SDS_P1;SDS_P2;PMS_P1;PMS_P2;Temp;Humidity;BMP_temperature;BMP_pressure;BME280_temperature;BME280_humidity;BME280_pressure;Samples;Min_cycle;Max_cycle;Signal;HPM_P1;HPM_P2
2023/06/06 00:01:29;;;;;;;;;;;;;;;27.66;35.22;101272.94;5097307;28;1124;-19
2023/06/06 00:03:56;;;;;;;;;;;;;;;27.69;35.02;101280.75;5097795;28;1121;-19
2023/06/06 00:06:23;;;;;;;;;;;;;;;27.56;35.25;101280.41;5090052;28;914;-20
2023/06/06 00:08:50;;;;;;;;;;;;;;;27.72;33.78;101284.94;5079385;28;1339;-20
2023/06/06 00:11:15;;;;;;;;;;;;;;;27.66;33.29;101283.75;5097065;28;1969;-21
2023/06/06 00:13:42;;;;;;;;;;;;;;;27.61;33.68;101284.28;5097252;28;1189;-20
2023/06/06 00:16:07;;;;;;;;;;;;;;;27.53;33.48;101273.47;5097238;28;1085;-20
2023/06/06 00:18:33;;;;;;;;;;;;;;;27.46;33.64;101275.22;5096715;28;886;-20
2023/06/06 00:20:58;;;;;;;;;;;;;;;27.51;33.61;101270.97;5096652;28;1504;-20
2023/06/06 00:23:24;;;;;;;;;;;;;;;27.51;33.39;101275.50;5097434;28;1043;-19
2023/06/06 00:25:52;;;;;;;;;;;;;;;27.56;33.31;101267.72;5096451;28;1416;-20
2023/06/06 00:28:17;;;;;;;;;;;;;;;27.54;33.18;101266.22;5097548;28;1071;-19
2023/06/06 00:30:43;;;;;;;;;;;;;;;27.54;33.29;101269.78;5096390;28;1973;-20
2023/06/06 00:33:08;;;;;;;;;;;;;;;27.44;32.81;101264.56;5097074;28;1122;-20
2023/06/06 00:35:34;;;;;;;;;;;;;;;27.55;33.01;101263.34;5078642;28;1129;-19
2023/06/06 00:38:00;;;;;;;;;;;;;;;27.46;33.20;101262.53;5097503;28;1205;-20
2023/06/06 00:40:26;;;;;;;;;;;;;;;27.51;33.13;101265.56;5078873;28;1550;-19
2023/06/06 00:42:52;;;;;;;;;;;;;;;27.54;32.92;101260.81;5096941;28;920;-19
2023/06/06 00:45:17;;;;;;;;;;;;;;;27.50;32.99;101265.72;5096791;28;1066;-20
2023/06/06 00:47:43;;;;;;;;;;;;;;;27.49;33.19;101262.16;5097050;28;1109;-19
2023/06/06 00:50:08;;;;;;;;;;;;;;;27.47;33.16;101257.97;5096269;28;1984;-20
2023/06/06 00:52:35;;;;;;;;;;;;;;;27.47;32.88;101268.78;5096842;28;1018;-20
2023/06/06 00:55:01;;;;;;;;;;;;;;;27.45;33.21;101270.81;5096454;28;997;-20
2023/06/06 00:57:27;;;;;;;;;;;;;;;27.46;33.29;101265.22;5062071;28;1242;-20
2023/06/06 00:59:52;;;;;;;;;;;;;;;27.47;33.06;101269.63;5065702;28;1206;-21
2023/06/06 01:02:18;;;;;;;;;;;;;;;27.42;33.15;101263.91;5078850;28;1035;-19
2023/06/06 01:04:44;;;;;;;;;;;;;;;27.41;33.31;101262.19;5096138;28;1114;-20
2023/06/06 01:07:12;;;;;;;;;;;;;;;27.41;33.14;101266.78;5091282;28;1178;-19
2023/06/06 01:09:40;;;;;;;;;;;;;;;27.43;33.10;101265.56;5096399;28;1114;-19
2023/06/06 01:12:18;;;;;;;;;;;;;;;27.44;33.38;101264.56;5096404;28;1972;-21
2023/06/06 01:14:47;;;;;;;;;;;;;;;27.36;32.89;101265.41;5078479;28;1020;-20
2023/06/06 01:17:13;;;;;;;;;;;;;;;27.46;32.77;101267.09;5077543;28;1074;-20
2023/06/06 01:19:39;;;;;;;;;;;;;;;27.37;33.04;101260.88;5061525;28;1075;-19
2023/06/06 01:22:04;;;;;;;;;;;;;;;27.34;33.07;101264.75;5077354;28;1248;-19
2023/06/06 01:24:31;;;;;;;;;;;;;;;27.35;33.13;101260.19;5096633;28;1046;-20
2023/06/06 01:26:57;;;;;;;;;;;;;;;27.31;33.29;101264.25;5096759;28;1126;-20
2023/06/06 01:29:23;;;;;;;;;;;;;;;27.41;33.14;101254.09;5090124;28;1107;-21
2023/06/06 01:32:15;;;;;;;;;;;;;;;27.48;32.83;101260.50;5068381;28;1965;-20
2023/06/06 01:34:48;;;;;;;;;;;;;;;27.39;32.89;101267.78;5048443;28;1269;-21
2023/06/06 01:37:21;;;;;;;;;;;;;;;27.45;32.97;101263.56;5077215;28;1195;-19
2023/06/06 01:39:47;;;;;;;;;;;;;;;27.37;32.99;101248.22;5071646;28;968;-21
2023/06/06 01:42:13;;;;;;;;;;;;;;;27.51;32.80;101246.63;5076785;28;1087;-20
2023/06/06 01:44:38;;;;;;;;;;;;;;;27.48;32.96;101247.00;5077698;28;1075;-19
2023/06/06 01:47:04;;;;;;;;;;;;;;;27.50;33.02;101249.50;5065219;28;1171;-20
2023/06/06 01:49:29;;;;;;;;;;;;;;;27.43;33.15;101243.97;5095784;28;1101;-19
2023/06/06 01:51:55;;;;;;;;;;;;;;;27.45;32.88;101244.63;5077976;28;1974;-20
2023/06/06 01:54:21;;;;;;;;;;;;;;;27.50;32.99;101241.41;5076773;28;1130;-20
2023/06/06 01:56:46;;;;;;;;;;;;;;;27.46;33.17;101242.78;5091838;28;1084;-20
2023/06/06 01:59:12;;;;;;;;;;;;;;;27.48;33.02;101251.53;5078012;28;1311;-19
2023/06/06 02:01:37;;;;;;;;;;;;;;;27.46;33.30;101243.59;5077758;28;1383;-19
2023/06/06 02:04:03;;;;;;;;;;;;;;;27.48;33.11;101244.28;5096140;28;1011;-20
2023/06/06 02:06:30;;;;;;;;;;;;;;;27.53;33.06;101245.63;5071835;28;1162;-20
2023/06/06 02:08:55;;;;;;;;;;;;;;;27.44;33.33;101242.09;5077449;28;1265;-19
2023/06/06 02:11:23;;;;;;;;;;;;;;;27.41;33.49;101245.97;5077576;28;1902;-20
2023/06/06 02:13:50;;;;;;;;;;;;;;;27.48;33.91;101252.38;5095687;28;1066;-19
2023/06/06 02:16:17;;;;;;;;;;;;;;;27.48;33.80;101248.84;5077244;28;1463;-20
2023/06/06 02:18:44;;;;;;;;;;;;;;;27.47;34.13;101245.31;5077634;28;1105;-20
2023/06/06 02:21:11;;;;;;;;;;;;;;;27.50;35.06;101246.81;5095811;28;1205;-19
2023/06/06 02:23:37;;;;;;;;;;;;;;;27.53;34.60;101243.75;5095636;28;1184;-19
2023/06/06 02:26:03;;;;;;;;;;;;;;;27.51;34.68;101246.63;5058150;28;1098;-20
2023/06/06 02:28:30;;;;;;;;;;;;;;;27.51;34.74;101249.34;5088876;28;1105;-21
2023/06/06 02:30:56;;;;;;;;;;;;;;;27.50;34.73;101244.97;5054655;28;1910;-20
2023/06/06 02:33:22;;;;;;;;;;;;;;;27.50;35.28;101241.41;5096011;28;1030;-20
2023/06/06 02:35:47;;;;;;;;;;;;;;;27.48;34.95;101249.69;5095697;28;1217;-19
2023/06/06 02:38:13;;;;;;;;;;;;;;;27.53;35.37;101251.88;5095594;28;1121;-20
2023/06/06 02:40:38;;;;;;;;;;;;;;;27.46;35.65;101243.59;5077482;28;1111;-20
2023/06/06 02:43:04;;;;;;;;;;;;;;;27.46;35.70;101251.72;5077161;28;1264;-20
2023/06/06 02:45:30;;;;;;;;;;;;;;;27.51;36.04;101252.03;5077570;28;1123;-19
2023/06/06 02:47:56;;;;;;;;;;;;;;;27.56;35.67;101254.22;5099319;28;1126;-19
2023/06/06 02:50:21;;;;;;;;;;;;;;;27.49;36.35;101255.94;5080463;28;1902;-19
2023/06/06 02:52:47;;;;;;;;;;;;;;;27.52;36.18;101252.91;5098883;28;1121;-19
2023/06/06 02:55:13;;;;;;;;;;;;;;;27.51;37.33;101252.03;5079833;28;1212;-19
2023/06/06 02:57:38;;;;;;;;;;;;;;;27.48;37.36;101256.94;5080947;28;1225;-20
2023/06/06 03:00:08;;;;;;;;;;;;;;;27.55;36.70;101260.66;5098969;28;1332;-19
2023/06/06 03:02:33;;;;;;;;;;;;;;;27.57;36.91;101258.63;5080469;28;1149;-20
2023/06/06 03:04:59;;;;;;;;;;;;;;;27.49;35.88;101264.88;5098756;28;1264;-19
2023/06/06 03:07:26;;;;;;;;;;;;;;;27.50;36.19;101265.72;5078588;28;1004;-20
2023/06/06 03:09:52;;;;;;;;;;;;;;;27.55;36.99;101263.34;5085341;28;1168;-20
2023/06/06 03:12:22;;;;;;;;;;;;;;;27.56;36.73;101254.22;5080285;28;1914;-20
2023/06/06 03:14:48;;;;;;;;;;;;;;;27.55;36.96;101257.09;5080423;28;1108;-20
2023/06/06 03:17:14;;;;;;;;;;;;;;;27.59;36.83;101261.16;5079955;28;1267;-20
2023/06/06 03:19:42;;;;;;;;;;;;;;;27.49;36.72;101261.34;5098624;28;919;-20
2023/06/06 03:22:08;;;;;;;;;;;;;;;27.38;35.86;101263.41;5080142;28;1214;-19
2023/06/06 03:24:35;;;;;;;;;;;;;;;27.42;35.77;101263.03;5079650;28;1545;-20
2023/06/06 03:27:05;;;;;;;;;;;;;;;27.36;35.35;101257.31;5080273;28;1213;-20
2023/06/06 03:29:31;;;;;;;;;;;;;;;27.38;35.26;101251.75;5080373;28;1315;-19
2023/06/06 03:31:57;;;;;;;;;;;;;;;27.28;35.74;101253.81;5079741;28;1913;-19
2023/06/06 03:34:25;;;;;;;;;;;;;;;27.49;36.11;101254.06;5080164;28;1174;-19
2023/06/06 03:36:52;;;;;;;;;;;;;;;27.35;35.63;101257.50;5079298;28;1191;-19
2023/06/06 03:39:17;;;;;;;;;;;;;;;27.32;35.71;101257.84;5079411;28;1281;-20
2023/06/06 03:41:44;;;;;;;;;;;;;;;27.38;35.56;101270.66;5080000;28;1295;-20
2023/06/06 03:44:10;;;;;;;;;;;;;;;27.28;36.15;101262.72;5079376;28;1195;-19
2023/06/06 03:46:35;;;;;;;;;;;;;;;25.92;34.63;101263.72;5079667;28;1235;-20
2023/06/06 03:49:01;;;;;;;;;;;;;;;24.67;36.12;101260.16;5079771;28;1135;-20
2023/06/06 03:51:27;;;;;;;;;;;;;;;24.25;37.62;101264.25;5098258;28;2022;-20
2023/06/06 03:53:53;;;;;;;;;;;;;;;23.88;39.05;101263.28;5079471;28;1305;-20
2023/06/06 03:56:21;;;;;;;;;;;;;;;24.10;38.77;101262.06;5078839;28;873;-19
2023/06/06 03:58:47;;;;;;;;;;;;;;;24.32;38.04;101263.50;5097374;28;1136;-18
2023/06/06 04:01:14;;;;;;;;;;;;;;;24.32;37.33;101257.28;5097901;28;1026;-18
2023/06/06 04:03:40;;;;;;;;;;;;;;;23.97;37.92;101260.53;5097844;28;1130;-18
2023/06/06 04:06:07;;;;;;;;;;;;;;;23.79;38.14;101257.81;5079425;28;1193;-17
2023/06/06 04:08:33;;;;;;;;;;;;;;;23.67;37.77;101259.00;5078974;28;1382;-17
2023/06/06 04:10:59;;;;;;;;;;;;;;;23.68;38.02;101258.84;5079274;28;1909;-17
2023/06/06 04:13:25;;;;;;;;;;;;;;;23.96;37.78;101260.69;5079404;28;1415;-18
2023/06/06 04:15:51;;;;;;;;;;;;;;;24.04;38.18;101266.19;5079330;28;1134;-19
2023/06/06 04:18:16;;;;;;;;;;;;;;;24.57;37.27;101268.31;5097221;28;1204;-19
2023/06/06 04:20:45;;;;;;;;;;;;;;;24.28;38.14;101267.50;5097601;28;1225;-19
2023/06/06 04:23:11;;;;;;;;;;;;;;;24.50;37.66;101262.69;5079389;28;1206;-19
2023/06/06 04:25:37;;;;;;;;;;;;;;;24.82;36.92;101271.22;5097420;28;1121;-20
2023/06/06 04:28:03;;;;;;;;;;;;;;;24.65;37.48;101260.31;5096622;28;1130;-19
2023/06/06 04:30:32;;;;;;;;;;;;;;;24.84;37.51;101271.88;5079060;28;1984;-19
2023/06/06 04:32:58;;;;;;;;;;;;;;;24.64;37.71;101266.66;5079231;28;1472;-19
2023/06/06 04:35:24;;;;;;;;;;;;;;;24.86;37.44;101274.44;5078694;28;1407;-19
2023/06/06 04:37:57;;;;;;;;;;;;;;;25.02;37.55;101263.00;5078722;28;1083;-18
2023/06/06 04:40:22;;;;;;;;;;;;;;;25.15;37.18;101265.28;5078764;28;2062;-19
2023/06/06 04:42:50;;;;;;;;;;;;;;;25.24;36.99;101267.00;5078528;28;1260;-18
2023/06/06 04:45:16;;;;;;;;;;;;;;;25.02;37.94;101263.84;5096710;28;1069;-19
2023/06/06 04:47:43;;;;;;;;;;;;;;;25.10;37.46;101263.06;5078497;28;1129;-20
2023/06/06 04:50:10;;;;;;;;;;;;;;;25.10;37.50;101264.91;5078423;28;1917;-18
2023/06/06 04:52:36;;;;;;;;;;;;;;;25.06;37.42;101267.91;5078380;28;1186;-19
2023/06/06 04:55:03;;;;;;;;;;;;;;;23.97;40.18;101271.28;5083114;28;1196;-19
2023/06/06 04:57:28;;;;;;;;;;;;;;;24.62;39.08;101275.91;5096659;28;1070;-20
2023/06/06 04:59:54;;;;;;;;;;;;;;;24.62;39.01;101281.28;5096474;28;1030;-19
2023/06/06 05:02:22;;;;;;;;;;;;;;;25.06;37.82;101280.50;5078391;28;1062;-18
2023/06/06 05:04:49;;;;;;;;;;;;;;;25.12;37.83;101273.66;5096826;28;1154;-19
2023/06/06 05:07:15;;;;;;;;;;;;;;;24.60;39.52;101275.19;5096102;28;1455;-19
2023/06/06 05:09:40;;;;;;;;;;;;;;;24.69;38.88;101277.00;5095409;28;1209;-19
2023/06/06 05:12:06;;;;;;;;;;;;;;;24.96;38.33;101274.41;5096307;28;1976;-19
2023/06/06 05:14:31;;;;;;;;;;;;;;;24.96;38.25;101271.69;5095705;28;1074;-19
2023/06/06 05:16:58;;;;;;;;;;;;;;;25.07;38.06;101264.19;5096337;28;1216;-20
2023/06/06 05:19:23;;;;;;;;;;;;;;;25.01;38.35;101267.53;5096130;28;1085;-19
2023/06/06 05:21:49;;;;;;;;;;;;;;;25.06;38.01;101259.84;5096080;28;1098;-19
2023/06/06 05:24:14;;;;;;;;;;;;;;;25.16;37.64;101261.56;5095821;28;1066;-20
2023/06/06 05:26:43;;;;;;;;;;;;;;;25.15;37.55;101260.75;5096530;28;1142;-18
2023/06/06 05:29:09;;;;;;;;;;;;;;;25.28;37.61;101264.84;5095029;28;1038;-19
2023/06/06 05:31:35;;;;;;;;;;;;;;;25.36;37.60;101266.78;5095975;28;1959;-19
2023/06/06 05:34:01;;;;;;;;;;;;;;;25.28;37.03;101272.94;5096258;28;1149;-19
2023/06/06 05:36:26;;;;;;;;;;;;;;;25.15;38.06;101267.97;5095908;28;1106;-20
2023/06/06 05:38:52;;;;;;;;;;;;;;;25.64;37.61;101272.03;5090893;28;1082;-19
2023/06/06 05:41:20;;;;;;;;;;;;;;;26.06;35.79;101272.19;5087894;28;1181;-18
2023/06/06 05:43:46;;;;;;;;;;;;;;;25.51;37.12;101280.47;5077636;28;1040;-18
2023/06/06 05:46:12;;;;;;;;;;;;;;;25.74;36.89;101278.13;5096504;28;1185;-18
2023/06/06 05:48:37;;;;;;;;;;;;;;;25.32;36.99;101279.72;5096029;28;1130;-18
2023/06/06 05:51:03;;;;;;;;;;;;;;;25.44;37.33;101275.72;5096112;28;1975;-18
2023/06/06 05:53:29;;;;;;;;;;;;;;;25.16;37.70;101283.97;5096115;28;1130;-18
2023/06/06 05:55:54;;;;;;;;;;;;;;;25.26;37.07;101281.16;5095899;28;1141;-18
2023/06/06 05:58:20;;;;;;;;;;;;;;;25.39;36.92;101286.13;5095053;28;1097;-18
2023/06/06 06:00:45;;;;;;;;;;;;;;;25.74;36.05;101296.16;5095356;28;1062;-17
2023/06/06 06:03:11;;;;;;;;;;;;;;;26.11;35.58;101291.44;5096237;28;1082;-19
2023/06/06 06:05:37;;;;;;;;;;;;;;;26.01;35.69;101287.00;5096051;28;1146;-18
2023/06/06 06:08:04;;;;;;;;;;;;;;;26.04;35.62;101285.84;5095118;28;1167;-18
2023/06/06 06:10:30;;;;;;;;;;;;;;;25.94;35.85;101285.13;5095662;28;2268;-18
2023/06/06 06:12:56;;;;;;;;;;;;;;;26.02;35.66;101283.31;5095585;28;1118;-17
2023/06/06 06:15:21;;;;;;;;;;;;;;;26.16;35.04;101283.66;5096015;28;1125;-17
2023/06/06 06:17:47;;;;;;;;;;;;;;;26.19;35.49;101283.38;5095848;28;1134;-18
2023/06/06 06:20:14;;;;;;;;;;;;;;;26.33;35.36;101283.75;5097165;28;1173;-18
2023/06/06 06:22:40;;;;;;;;;;;;;;;26.27;35.45;101286.09;5099631;28;1106;-18
2023/06/06 06:25:08;;;;;;;;;;;;;;;26.18;35.75;101276.28;5099325;28;1097;-18
2023/06/06 06:27:35;;;;;;;;;;;;;;;26.21;35.71;101286.72;5099418;28;1065;-18
2023/06/06 06:30:04;;;;;;;;;;;;;;;26.26;35.72;101287.09;5099155;28;1126;-18
2023/06/06 06:32:31;;;;;;;;;;;;;;;26.22;35.53;101279.50;5098546;28;1910;-18
2023/06/06 06:34:56;;;;;;;;;;;;;;;26.41;35.18;101281.94;5099282;28;1132;-18
2023/06/06 06:37:23;;;;;;;;;;;;;;;26.22;35.00;101280.34;5098781;28;1061;-18
2023/06/06 06:39:49;;;;;;;;;;;;;;;26.26;34.64;101284.38;5080828;28;1205;-18
2023/06/06 06:42:15;;;;;;;;;;;;;;;26.29;34.73;101283.22;5098601;28;1035;-17
2023/06/06 06:44:50;;;;;;;;;;;;;;;26.44;34.19;101282.63;5080823;28;1265;-18
2023/06/06 06:47:16;;;;;;;;;;;;;;;26.43;34.00;101289.84;5081480;28;1133;-18
2023/06/06 06:49:42;;;;;;;;;;;;;;;26.47;34.19;101285.81;5099215;28;1089;-18
2023/06/06 06:52:07;;;;;;;;;;;;;;;26.59;33.64;101275.53;5098692;28;1989;-18
2023/06/06 06:54:35;;;;;;;;;;;;;;;26.65;32.66;101282.13;5099141;28;1131;-18
2023/06/06 06:57:01;;;;;;;;;;;;;;;26.76;32.86;101276.41;5098431;28;859;-18
2023/06/06 06:59:28;;;;;;;;;;;;;;;26.90;32.40;101274.06;5098735;28;1097;-18
2023/06/06 07:01:53;;;;;;;;;;;;;;;26.89;32.46;101277.78;5099043;28;1149;-18
2023/06/06 07:04:19;;;;;;;;;;;;;;;26.81;32.79;101281.28;5098983;28;1086;-18
2023/06/06 07:06:46;;;;;;;;;;;;;;;26.79;32.64;101280.63;5099218;28;1170;-18
2023/06/06 07:09:12;;;;;;;;;;;;;;;26.80;32.83;101281.47;5084839;28;1043;-18
2023/06/06 07:11:38;;;;;;;;;;;;;;;26.92;32.05;101281.97;5098903;28;1906;-18
2023/06/06 07:14:04;;;;;;;;;;;;;;;26.99;31.62;101278.44;5098381;28;1070;-18
2023/06/06 07:16:31;;;;;;;;;;;;;;;26.80;31.26;101278.75;5098271;28;1031;-18
2023/06/06 07:18:56;;;;;;;;;;;;;;;27.16;31.00;101293.81;5098593;28;1073;-18
2023/06/06 07:21:22;;;;;;;;;;;;;;;26.95;31.33;101281.63;5097860;28;1008;-18
2023/06/06 07:23:48;;;;;;;;;;;;;;;27.00;31.23;101287.38;5098267;28;1050;-18
2023/06/06 07:26:16;;;;;;;;;;;;;;;27.01;31.32;101283.66;5098389;28;1186;-18
2023/06/06 07:28:42;;;;;;;;;;;;;;;27.07;31.29;101287.56;5097916;28;1141;-18
2023/06/06 07:31:08;;;;;;;;;;;;;;;27.05;31.50;101290.44;5084961;28;1910;-19
2023/06/06 07:33:33;;;;;;;;;;;;;;;27.18;31.01;101305.28;5097449;28;847;-18
2023/06/06 07:35:59;;;;;;;;;;;;;;;26.97;31.08;101293.13;5098259;28;1137;-18
2023/06/06 07:38:26;;;;;;;;;;;;;;;27.05;30.89;101297.69;5097476;28;1133;-18
2023/06/06 07:40:51;;;;;;;;;;;;;;;27.09;30.28;101302.59;5098403;28;1194;-18
2023/06/06 07:43:17;;;;;;;;;;;;;;;27.30;29.54;101303.06;5098190;28;1069;-18
2023/06/06 07:45:42;;;;;;;;;;;;;;;27.17;30.23;101300.91;5097608;28;924;-18
2023/06/06 07:48:08;;;;;;;;;;;;;;;27.07;30.42;101298.38;5080134;28;1095;-18
2023/06/06 07:50:34;;;;;;;;;;;;;;;26.45;30.43;101188.03;5097421;28;1968;-18
2023/06/06 07:52:59;;;;;;;;;;;;;;;26.98;30.52;101292.94;5098530;28;1165;-18
2023/06/06 07:55:25;;;;;;;;;;;;;;;26.74;31.41;101286.53;5098072;28;1073;-18
2023/06/06 07:57:51;;;;;;;;;;;;;;;27.08;29.78;101291.94;5097674;28;1166;-18
2023/06/06 08:00:16;;;;;;;;;;;;;;;27.19;29.47;101297.03;5097628;28;1117;-19
2023/06/06 08:02:42;;;;;;;;;;;;;;;26.25;26.93;101295.34;5097740;28;1161;-17
2023/06/06 08:05:08;;;;;;;;;;;;;;;26.29;28.88;101286.75;5097519;28;1162;-18
2023/06/06 08:07:35;;;;;;;;;;;;;;;26.74;29.30;101283.81;5097399;28;1261;-20
2023/06/06 08:10:00;;;;;;;;;;;;;;;27.14;29.31;101291.28;5097036;28;893;-19
2023/06/06 08:12:26;;;;;;;;;;;;;;;27.15;29.54;101301.06;5097084;28;1914;-20
2023/06/06 08:14:51;;;;;;;;;;;;;;;27.17;29.12;101295.50;5097005;28;1054;-20
2023/06/06 08:17:17;;;;;;;;;;;;;;;27.23;28.64;101300.22;5097121;28;1035;-19
2023/06/06 08:19:43;;;;;;;;;;;;;;;27.18;28.58;101297.19;5097162;28;1146;-19
2023/06/06 08:22:09;;;;;;;;;;;;;;;27.23;28.57;101303.78;5096927;28;998;-19
2023/06/06 08:24:34;;;;;;;;;;;;;;;27.13;28.48;101284.19;5096925;28;1043;-20
2023/06/06 08:27:00;;;;;;;;;;;;;;;27.23;28.85;101290.25;5096753;28;1066;-19
2023/06/06 08:29:26;;;;;;;;;;;;;;;27.16;28.49;101291.94;5097439;28;1205;-20
2023/06/06 08:31:53;;;;;;;;;;;;;;;27.32;28.37;101295.66;5097149;28;1914;-19
2023/06/06 08:34:19;;;;;;;;;;;;;;;27.20;28.60;101296.00;5097002;28;911;-20
2023/06/06 08:36:46;;;;;;;;;;;;;;;27.18;28.80;101284.53;5096523;28;1050;-19
2023/06/06 08:39:11;;;;;;;;;;;;;;;27.31;28.59;101291.28;5097263;28;1182;-20
2023/06/06 08:41:37;;;;;;;;;;;;;;;27.29;28.73;101280.66;5097172;28;1217;-19
2023/06/06 08:44:03;;;;;;;;;;;;;;;27.25;28.57;101290.09;5079049;28;1177;-19
2023/06/06 08:46:33;;;;;;;;;;;;;;;27.42;28.11;101287.34;5096625;28;919;-20
2023/06/06 08:49:01;;;;;;;;;;;;;;;27.34;28.40;101280.13;5096452;28;1125;-19
2023/06/06 08:51:27;;;;;;;;;;;;;;;27.30;28.52;101268.81;5096633;28;1914;-20
2023/06/06 08:53:53;;;;;;;;;;;;;;;27.34;28.29;101269.31;5096946;28;1074;-19
2023/06/06 08:56:22;;;;;;;;;;;;;;;27.23;28.85;101270.50;5078068;28;1144;-20
2023/06/06 08:58:48;;;;;;;;;;;;;;;27.34;28.87;101274.72;5085565;28;1058;-19
2023/06/06 09:01:13;;;;;;;;;;;;;;;27.39;28.57;101264.25;5078327;28;1397;-19
2023/06/06 09:03:43;;;;;;;;;;;;;;;27.42;28.55;101271.16;5096426;28;1334;-20
2023/06/06 09:06:09;;;;;;;;;;;;;;;27.41;28.04;101267.59;5093808;28;1212;-20
2023/06/06 09:08:35;;;;;;;;;;;;;;;27.36;27.65;101262.72;5068627;28;1164;-20
2023/06/06 09:11:01;;;;;;;;;;;;;;;27.41;27.16;101262.19;5092682;28;1906;-20
2023/06/06 09:13:28;;;;;;;;;;;;;;;27.28;27.42;101256.50;5096780;28;1087;-19
2023/06/06 09:15:53;;;;;;;;;;;;;;;27.43;27.68;101268.28;5096453;28;1074;-20
2023/06/06 09:18:19;;;;;;;;;;;;;;;27.14;27.83;101267.81;5096463;28;1142;-19
2023/06/06 09:20:48;;;;;;;;;;;;;;;27.16;28.02;101254.13;5096611;28;1077;-21
2023/06/06 09:23:14;;;;;;;;;;;;;;;27.23;27.75;101265.94;5078225;28;1241;-19
2023/06/06 09:25:42;;;;;;;;;;;;;;;27.40;28.06;101274.03;5096400;28;1117;-19
2023/06/06 09:28:07;;;;;;;;;;;;;;;27.53;27.84;101280.78;5096895;28;1177;-19
2023/06/06 09:30:35;;;;;;;;;;;;;;;27.56;27.75;101269.59;5096442;28;1897;-20
2023/06/06 09:33:02;;;;;;;;;;;;;;;27.46;27.57;101272.50;5089236;28;1173;-20
2023/06/06 09:35:31;;;;;;;;;;;;;;;27.36;27.55;101259.19;5096138;28;1074;-20
2023/06/06 09:37:57;;;;;;;;;;;;;;;27.36;27.86;101268.13;5096513;28;1079;-20
2023/06/06 09:40:23;;;;;;;;;;;;;;;27.45;28.02;101271.66;5096608;28;1138;-19
2023/06/06 09:42:49;;;;;;;;;;;;;;;27.37;28.25;101266.28;5078019;28;1133;-20
2023/06/06 09:45:15;;;;;;;;;;;;;;;27.46;28.16;101265.22;5095711;28;1062;-20
2023/06/06 09:47:41;;;;;;;;;;;;;;;27.71;29.48;101264.34;5096087;28;1054;-19
2023/06/06 09:50:07;;;;;;;;;;;;;;;27.87;28.50;101272.41;5096251;28;1058;-18
2023/06/06 09:52:33;;;;;;;;;;;;;;;27.92;28.65;101262.91;5096426;28;1913;-19
2023/06/06 09:54:58;;;;;;;;;;;;;;;27.97;28.24;101271.34;5062342;28;1242;-19
2023/06/06 09:57:24;;;;;;;;;;;;;;;28.05;28.26;101271.28;5095308;28;1157;-19
2023/06/06 09:59:50;;;;;;;;;;;;;;;27.96;28.05;101256.97;5079450;28;1229;-18
2023/06/06 10:02:16;;;;;;;;;;;;;;;28.15;28.36;101264.81;5100543;28;1082;-19
2023/06/06 10:04:42;;;;;;;;;;;;;;;27.95;28.44;101267.97;5080471;28;1267;-20
2023/06/06 10:07:08;;;;;;;;;;;;;;;27.70;28.83;101268.06;5085859;28;1396;-20
2023/06/06 10:09:34;;;;;;;;;;;;;;;27.74;28.45;101262.13;5078614;28;1230;-19
2023/06/06 10:11:59;;;;;;;;;;;;;;;27.86;28.79;101268.00;5097707;28;1918;-20
2023/06/06 10:14:26;;;;;;;;;;;;;;;27.73;28.83;101260.44;5099810;28;1130;-19
2023/06/06 10:16:52;;;;;;;;;;;;;;;27.53;29.19;101269.97;5081363;28;1126;-20
2023/06/06 10:19:17;;;;;;;;;;;;;;;27.39;29.39;101273.16;5099443;28;1019;-20
2023/06/06 10:21:43;;;;;;;;;;;;;;;27.37;29.41;101267.13;5081120;28;1107;-19
2023/06/06 10:24:08;;;;;;;;;;;;;;;27.37;29.45;101261.72;5099601;28;1031;-19
2023/06/06 10:26:41;;;;;;;;;;;;;;;27.36;29.30;101262.72;5099461;28;1077;-19
2023/06/06 10:29:11;;;;;;;;;;;;;;;27.44;29.01;101256.47;5071962;28;1214;-20
2023/06/06 10:31:40;;;;;;;;;;;;;;;27.57;29.13;101257.78;5081154;28;1979;-19
2023/06/06 10:34:07;;;;;;;;;;;;;;;27.98;28.37;101252.22;5097924;28;1012;-21
2023/06/06 10:36:40;;;;;;;;;;;;;;;27.55;28.99;101249.84;5099090;28;1367;-19
2023/06/06 10:39:15;;;;;;;;;;;;;;;27.49;29.30;101254.06;5099717;28;1042;-20
2023/06/06 10:41:41;;;;;;;;;;;;;;;27.56;29.11;101238.00;5099688;28;1097;-20
2023/06/06 10:44:07;;;;;;;;;;;;;;;27.58;29.01;101237.81;5099377;28;1166;-20
2023/06/06 10:46:34;;;;;;;;;;;;;;;27.59;29.33;101245.75;5099131;28;996;-19
2023/06/06 10:49:00;;;;;;;;;;;;;;;27.59;29.35;101242.22;5080911;28;1237;-19
2023/06/06 10:51:27;;;;;;;;;;;;;;;27.61;28.96;101245.63;5099325;28;1973;-20
2023/06/06 10:54:11;;;;;;;;;;;;;;;27.59;28.81;101244.94;5098925;28;1210;-19
2023/06/06 10:56:41;;;;;;;;;;;;;;;27.61;28.99;101234.81;5088515;28;1139;-19
2023/06/06 10:59:09;;;;;;;;;;;;;;;27.61;28.73;101238.31;5068079;28;1374;-19
2023/06/06 11:01:36;;;;;;;;;;;;;;;27.75;28.86;101242.19;5098315;28;1086;-20
2023/06/06 11:04:01;;;;;;;;;;;;;;;27.77;28.62;101238.47;5098999;28;1106;-19
2023/06/06 11:06:27;;;;;;;;;;;;;;;27.95;28.53;101230.97;5079324;28;1500;-19
2023/06/06 11:08:56;;;;;;;;;;;;;;;28.11;28.39;101238.13;5097846;28;1063;-19
2023/06/06 11:11:26;;;;;;;;;;;;;;;28.01;27.97;101234.78;5080577;28;1910;-19
2023/06/06 11:13:56;;;;;;;;;;;;;;;27.91;28.29;101237.72;5098400;28;1110;-19
2023/06/06 11:16:40;;;;;;;;;;;;;;;27.76;28.45;101234.91;5098956;28;1157;-19
2023/06/06 11:19:11;;;;;;;;;;;;;;;27.67;28.73;101235.94;5086362;28;1095;-19
2023/06/06 11:21:37;;;;;;;;;;;;;;;27.87;28.50;101241.81;5098682;28;1083;-20
2023/06/06 11:24:02;;;;;;;;;;;;;;;28.10;28.12;101235.59;5099051;28;1029;-19
2023/06/06 11:26:28;;;;;;;;;;;;;;;28.14;28.07;101233.38;5098097;28;1066;-20
2023/06/06 11:28:55;;;;;;;;;;;;;;;28.18;27.86;101240.09;5081021;28;1186;-19
2023/06/06 11:31:24;;;;;;;;;;;;;;;28.20;28.14;101252.44;5098719;28;1906;-20
2023/06/06 11:33:50;;;;;;;;;;;;;;;28.16;28.06;101231.34;5098344;28;1209;-19
2023/06/06 11:36:16;;;;;;;;;;;;;;;28.06;28.14;101228.88;5098289;28;1112;-19
2023/06/06 11:38:42;;;;;;;;;;;;;;;28.18;27.99;101234.69;5080448;28;1111;-20
2023/06/06 11:41:07;;;;;;;;;;;;;;;28.27;27.62;101240.91;5092388;28;1650;-18
2023/06/06 11:43:33;;;;;;;;;;;;;;;28.35;27.62;101232.78;5079980;28;1007;-20
2023/06/06 11:46:02;;;;;;;;;;;;;;;28.40;27.47;101218.69;5097405;28;1110;-20
2023/06/06 11:48:28;;;;;;;;;;;;;;;28.35;27.57;101232.78;5098383;28;1140;-19
2023/06/06 11:50:53;;;;;;;;;;;;;;;28.38;27.93;101234.28;5097967;28;1972;-20
2023/06/06 11:53:33;;;;;;;;;;;;;;;28.43;27.57;101219.19;5098137;28;1180;-19
2023/06/06 11:55:59;;;;;;;;;;;;;;;28.34;27.83;101210.28;5098261;28;1193;-20
2023/06/06 11:58:24;;;;;;;;;;;;;;;28.44;27.67;101233.56;5079971;28;1162;-19
2023/06/06 12:00:56;;;;;;;;;;;;;;;28.44;27.80;101226.28;5097559;28;1057;-19
2023/06/06 12:03:22;;;;;;;;;;;;;;;28.38;27.97;101229.69;5098239;28;1091;-20
2023/06/06 12:06:00;;;;;;;;;;;;;;;28.38;27.96;101221.59;5079413;28;1125;-20
2023/06/06 12:08:26;;;;;;;;;;;;;;;28.38;28.12;101227.00;5097760;28;1711;-20
2023/06/06 12:10:52;;;;;;;;;;;;;;;28.47;28.03;101233.19;5097568;28;1898;-21
2023/06/06 12:13:32;;;;;;;;;;;;;;;28.50;28.22;101215.75;5097573;28;1093;-20
2023/06/06 12:15:58;;;;;;;;;;;;;;;28.41;28.27;101209.56;5097514;28;1093;-18
2023/06/06 12:18:24;;;;;;;;;;;;;;;28.32;28.58;101209.59;5097121;28;1125;-19
2023/06/06 12:20:49;;;;;;;;;;;;;;;28.22;28.57;101211.69;5097557;28;1097;-19
2023/06/06 12:23:27;;;;;;;;;;;;;;;28.15;28.57;101219.69;5097090;28;1161;-20
2023/06/06 12:25:53;;;;;;;;;;;;;;;28.33;28.66;101210.47;5097530;28;1136;-19
2023/06/06 12:28:20;;;;;;;;;;;;;;;28.55;28.15;101203.38;5097455;28;1475;-19
2023/06/06 12:30:49;;;;;;;;;;;;;;;28.64;28.26;101200.59;5096830;28;1898;-20
2023/06/06 12:33:15;;;;;;;;;;;;;;;28.57;28.27;101201.31;5096860;28;1045;-21
2023/06/06 12:35:44;;;;;;;;;;;;;;;28.56;28.44;101196.91;5096762;28;1125;-20
2023/06/06 12:38:18;;;;;;;;;;;;;;;28.44;29.19;101185.72;5091782;28;1358;-19
2023/06/06 12:40:52;;;;;;;;;;;;;;;28.33;29.11;101195.06;5097896;28;1099;-20
2023/06/06 12:43:17;;;;;;;;;;;;;;;28.34;29.57;101175.09;5096581;28;1090;-19
2023/06/06 12:45:43;;;;;;;;;;;;;;;28.30;29.86;101181.03;5096141;28;1015;-19